createdAt,value
2023-02-26T00:01:31.112Z,101657.41
2023-02-26T00:04:01.012Z,101667.91
2023-02-26T00:06:29.774Z,101674.81
2023-02-26T00:08:57.334Z,101677.28
2023-02-26T00:11:25.145Z,101685.00
2023-02-26T00:13:54.332Z,101689.28
2023-02-26T00:16:28.705Z,101686.66
2023-02-26T00:18:57.054Z,101690.97
2023-02-26T00:21:26.482Z,101696.31
2023-02-26T00:23:54.532Z,101700.00
2023-02-26T00:26:23.735Z,101704.41
2023-02-26T00:28:53.272Z,101704.56
2023-02-26T00:31:24.688Z,101715.19
2023-02-26T00:33:53.938Z,101715.28
2023-02-26T00:36:25.436Z,101713.50
2023-02-26T00:39:09.908Z,101706.88
2023-02-26T00:41:38.821Z,101713.91
2023-02-26T00:44:07.916Z,101718.44
2023-02-26T00:46:46.392Z,101713.69
2023-02-26T00:49:27.412Z,101720.31
2023-02-26T00:51:58.232Z,101736.66
2023-02-26T00:54:28.077Z,101736.66
2023-02-26T00:56:57.679Z,101736.66
2023-02-26T00:59:26.487Z,101738.31
2023-02-26T01:01:54.100Z,101731.78
2023-02-26T01:04:24.593Z,101736.59
2023-02-26T01:06:57.833Z,101742.19
2023-02-26T01:09:27.857Z,101741.75
2023-02-26T01:12:00.957Z,101742.69
2023-02-26T01:14:32.281Z,101741.03
2023-02-26T01:17:08.114Z,101743.41
2023-02-26T01:19:45.379Z,101741.50
2023-02-26T01:22:21.266Z,101751.69
2023-02-26T01:24:54.448Z,101756.94
2023-02-26T01:27:21.975Z,101757.91
2023-02-26T01:29:51.000Z,101757.19
2023-02-26T01:32:25.381Z,101767.06
2023-02-26T01:35:02.168Z,101766.25
2023-02-26T01:37:41.489Z,101770.66
2023-02-26T01:40:36.178Z,101766.75
2023-02-26T01:43:12.759Z,101775.53
2023-02-26T01:45:58.220Z,101771.53
2023-02-26T01:48:37.757Z,101777.00
2023-02-26T01:51:05.595Z,101777.75
2023-02-26T01:53:32.574Z,101781.06
2023-02-26T01:56:06.392Z,101784.59
2023-02-26T01:58:36.808Z,101796.84
2023-02-26T02:01:06.270Z,101793.44
2023-02-26T02:03:38.158Z,101790.09
2023-02-26T02:06:09.263Z,101796.41
2023-02-26T02:08:36.482Z,101798.31
2023-02-26T02:11:08.499Z,101804.63
2023-02-26T02:13:57.893Z,101809.16
2023-02-26T02:16:40.278Z,101815.34
2023-02-26T02:19:33.706Z,101821.53
2023-02-26T02:22:40.304Z,101827.13
2023-02-26T02:25:32.496Z,101834.03
2023-02-26T02:28:14.149Z,101838.41
2023-02-26T02:31:02.228Z,101834.38
2023-02-26T02:33:37.363Z,101837.81
2023-02-26T02:36:15.250Z,101842.22
2023-02-26T02:38:49.572Z,101849.13
2023-02-26T02:41:25.696Z,101844.97
2023-02-26T02:43:55.164Z,101846.75
2023-02-26T02:46:28.772Z,101850.44
2023-02-26T02:49:03.295Z,101853.19
2023-02-26T02:51:34.237Z,101858.41
2023-02-26T02:54:10.413Z,101858.41
2023-02-26T02:56:46.613Z,101874.09
2023-02-26T02:59:22.167Z,101872.41
2023-02-26T03:01:59.880Z,101878.63
2023-02-26T03:04:26.913Z,101872.41
2023-02-26T03:06:53.834Z,101878.50
2023-02-26T03:09:20.838Z,101879.56
2023-02-26T03:11:47.795Z,101878.63
2023-02-26T03:14:15.760Z,101881.25
2023-02-26T03:17:02.977Z,101876.94
2023-02-26T03:19:38.406Z,101888.09
2023-02-26T03:22:11.075Z,101888.09
2023-02-26T03:24:48.538Z,101899.41
2023-02-26T03:27:29.534Z,101895.00
2023-02-26T03:30:02.260Z,101900.97
2023-02-26T03:32:42.252Z,101905.47
2023-02-26T03:35:15.859Z,101900.38
2023-02-26T03:37:48.092Z,101903.94
2023-02-26T03:40:22.075Z,101912.63
2023-02-26T03:42:55.239Z,101921.31
2023-02-26T03:45:29.000Z,101929.00
2023-02-26T03:48:01.060Z,101935.19
2023-02-26T03:50:35.797Z,101933.53
2023-02-26T03:53:07.893Z,101938.06
2023-02-26T03:55:41.533Z,101949.22
2023-02-26T03:58:08.466Z,101954.31
2023-02-26T04:00:43.139Z,101949.94
2023-02-26T04:03:18.643Z,101954.47
2023-02-26T04:05:50.752Z,101960.75
2023-02-26T04:08:18.300Z,101964.91
2023-02-26T04:10:54.205Z,101964.31
2023-02-26T04:13:21.856Z,101971.31
2023-02-26T04:15:48.857Z,101973.94
2023-02-26T04:18:17.304Z,101974.91
2023-02-26T04:20:44.214Z,101977.50
2023-02-26T04:23:11.362Z,101980.25
2023-02-26T04:25:38.427Z,101989.88
2023-02-26T04:28:05.332Z,101995.34
2023-02-26T04:30:32.636Z,101988.41
2023-02-26T04:32:59.559Z,101991.16
2023-02-26T04:35:27.985Z,101999.13
2023-02-26T04:37:54.964Z,102000.91
2023-02-26T04:40:23.900Z,102002.69
2023-02-26T04:42:51.644Z,102002.91
2023-02-26T04:45:18.574Z,102010.88
2023-02-26T04:47:45.499Z,102012.56
2023-02-26T04:50:12.427Z,102012.44
2023-02-26T04:52:40.735Z,102013.16
2023-02-26T04:55:08.994Z,102018.38
2023-02-26T04:57:35.953Z,102017.31
2023-02-26T05:00:07.153Z,102021.47
2023-02-26T05:02:34.440Z,102026.50
2023-02-26T05:05:01.797Z,102032.56
2023-02-26T05:07:29.038Z,102031.72
2023-02-26T05:09:57.317Z,102034.34
2023-02-26T05:12:24.819Z,102042.88
2023-02-26T05:14:51.766Z,102035.03
2023-02-26T05:17:18.739Z,102041.91
2023-02-26T05:19:45.649Z,102050.50
2023-02-26T05:22:12.649Z,102059.06
2023-02-26T05:24:39.604Z,102055.75
2023-02-26T05:27:07.867Z,102062.84
2023-02-26T05:29:34.858Z,102064.75
2023-02-26T05:32:02.644Z,102066.66
2023-02-26T05:34:30.003Z,102075.47
2023-02-26T05:36:56.960Z,102072.22
2023-02-26T05:39:23.888Z,102067.84
2023-02-26T05:41:51.907Z,102072.34
2023-02-26T05:44:20.237Z,102073.50
2023-02-26T05:46:47.302Z,102078.03
2023-02-26T05:49:14.187Z,102074.47
2023-02-26T05:51:42.708Z,102086.56
2023-02-26T05:54:10.153Z,102093.34
2023-02-26T05:56:37.276Z,102084.47
2023-02-26T05:59:04.550Z,102091.38
2023-02-26T06:01:32.980Z,102089.69
2023-02-26T06:04:00.948Z,102101.81
2023-02-26T06:06:28.008Z,102101.81
2023-02-26T06:08:55.210Z,102114.06
2023-02-26T06:11:22.499Z,102122.53
2023-02-26T06:13:49.758Z,102124.19
2023-02-26T06:16:16.724Z,102125.84
2023-02-26T06:18:44.985Z,102139.84
2023-02-26T06:21:11.992Z,102139.97
2023-02-26T06:23:39.033Z,102137.38
2023-02-26T06:26:06.429Z,102146.16
2023-02-26T06:28:33.530Z,102135.59
2023-02-26T06:31:00.732Z,102139.28
2023-02-26T06:33:27.918Z,102146.28
2023-02-26T06:35:57.911Z,102145.31
2023-02-26T06:38:24.896Z,102154.13
2023-02-26T06:40:51.853Z,102152.56
2023-02-26T06:43:18.736Z,102159.56
2023-02-26T06:45:46.233Z,102156.22
2023-02-26T06:48:13.711Z,102157.16
2023-02-26T06:50:40.655Z,102164.78
2023-02-26T06:53:09.284Z,102167.31
2023-02-26T06:55:36.817Z,102170.66
2023-02-26T06:58:03.753Z,102177.19
2023-02-26T07:00:30.778Z,102181.03
2023-02-26T07:02:58.273Z,102177.25
2023-02-26T07:05:25.230Z,102180.38
2023-02-26T07:07:52.190Z,102185.34
2023-02-26T07:10:21.497Z,102193.91
2023-02-26T07:12:48.659Z,102197.28
2023-02-26T07:15:15.758Z,102204.88
2023-02-26T07:17:42.690Z,102209.66
2023-02-26T07:20:12.179Z,102210.88
2023-02-26T07:22:39.141Z,102212.59
2023-02-26T07:25:07.514Z,102214.16
2023-02-26T07:27:36.382Z,102222.06
2023-02-26T07:30:06.108Z,102231.38
2023-02-26T07:32:33.562Z,102234.34
2023-02-26T07:35:00.470Z,102235.63
2023-02-26T07:37:29.029Z,102233.34
2023-02-26T07:39:56.015Z,102244.91
2023-02-26T07:42:22.967Z,102250.19
2023-02-26T07:44:51.277Z,102254.91
2023-02-26T07:47:18.400Z,102255.56
2023-02-26T07:49:45.352Z,102253.09
2023-02-26T07:52:12.319Z,102252.88
2023-02-26T07:54:39.268Z,102254.97
2023-02-26T07:57:06.253Z,102257.06
2023-02-26T07:59:33.202Z,102264.16
2023-02-26T08:02:01.545Z,102260.44
2023-02-26T08:04:28.666Z,102261.66
2023-02-26T08:06:57.175Z,102260.16
2023-02-26T08:09:24.173Z,102261.25
2023-02-26T08:11:51.147Z,102273.69
2023-02-26T08:14:18.118Z,102266.06
2023-02-26T08:16:45.412Z,102267.94
2023-02-26T08:19:13.740Z,102275.00
2023-02-26T08:21:40.893Z,102279.84
2023-02-26T08:24:07.948Z,102286.19
2023-02-26T08:26:37.164Z,102287.97
2023-02-26T08:29:05.049Z,102281.44
2023-02-26T08:31:32.348Z,102285.00
2023-02-26T08:33:59.385Z,102292.31
2023-02-26T08:36:28.022Z,102299.75
2023-02-26T08:38:55.258Z,102303.09
2023-02-26T08:41:23.129Z,102310.88
2023-02-26T08:43:51.268Z,102304.81
2023-02-26T08:46:18.251Z,102307.03
2023-02-26T08:48:45.204Z,102313.88
2023-02-26T08:51:12.263Z,102319.28
2023-02-26T08:53:40.558Z,102329.47
2023-02-26T08:56:07.865Z,102330.75
2023-02-26T08:58:34.791Z,102333.84
2023-02-26T09:01:01.743Z,102332.56
2023-02-26T09:03:28.690Z,102339.06
2023-02-26T09:05:55.671Z,102343.47
2023-02-26T09:08:22.609Z,102346.75
2023-02-26T09:10:51.020Z,102351.81
2023-02-26T09:13:18.622Z,102350.66
2023-02-26T09:15:45.555Z,102354.63
2023-02-26T09:18:15.436Z,102359.88
2023-02-26T09:20:42.967Z,102362.66
2023-02-26T09:23:10.666Z,102374.47
2023-02-26T09:25:38.875Z,102373.66
2023-02-26T09:28:07.484Z,102376.56
2023-02-26T09:30:34.495Z,102365.97
2023-02-26T09:33:01.511Z,102363.78
2023-02-26T09:35:28.585Z,102370.81
2023-02-26T09:37:55.551Z,102375.28
2023-02-26T09:40:36.773Z,102379.47
2023-02-26T09:43:31.039Z,102378.88
2023-02-26T09:46:05.942Z,102379.34
2023-02-26T09:48:36.988Z,102392.66
2023-02-26T09:51:08.207Z,102392.63
2023-02-26T09:53:41.224Z,102387.75
2023-02-26T09:56:16.596Z,102391.25
2023-02-26T09:58:46.218Z,102387.06
2023-02-26T10:01:22.371Z,102392.88
2023-02-26T10:04:10.888Z,102403.44
2023-02-26T10:06:53.090Z,102402.00
2023-02-26T10:09:39.785Z,102405.72
2023-02-26T10:12:12.098Z,102408.84
2023-02-26T10:14:49.474Z,102410.84
2023-02-26T10:17:23.005Z,102410.88
2023-02-26T10:19:58.307Z,102410.44
2023-02-26T10:22:35.421Z,102420.84
2023-02-26T10:25:09.502Z,102418.06
2023-02-26T10:27:55.282Z,102424.75
2023-02-26T10:30:36.208Z,102436.06
2023-02-26T10:33:17.734Z,102429.94
2023-02-26T10:35:52.772Z,102429.31
2023-02-26T10:38:25.289Z,102443.38
2023-02-26T10:40:59.779Z,102442.53
2023-02-26T10:43:32.570Z,102449.09
2023-02-26T10:46:22.995Z,102444.66
2023-02-26T10:49:24.598Z,102447.50
2023-02-26T10:51:53.540Z,102453.28
2023-02-26T10:54:27.710Z,102450.75
2023-02-26T10:56:54.607Z,102462.28
2023-02-26T10:59:21.739Z,102454.94
2023-02-26T11:01:52.458Z,102466.59
2023-02-26T11:04:23.857Z,102459.25
2023-02-26T11:06:56.291Z,102460.59
2023-02-26T11:09:28.742Z,102466.59
2023-02-26T11:12:04.657Z,102463.00
2023-02-26T11:14:33.410Z,102465.53
2023-02-26T11:17:07.457Z,102461.25
2023-02-26T11:19:39.646Z,102467.63
2023-02-26T11:22:12.213Z,102460.81
2023-02-26T11:24:46.279Z,102469.28
2023-02-26T11:27:16.197Z,102466.09
2023-02-26T11:29:48.263Z,102459.06
2023-02-26T11:32:21.441Z,102465.09
2023-02-26T11:34:51.866Z,102466.94
2023-02-26T11:37:22.798Z,102460.38
2023-02-26T11:39:57.914Z,102461.72
2023-02-26T11:42:26.388Z,102465.13
2023-02-26T11:44:54.795Z,102471.91
2023-02-26T11:47:29.579Z,102469.81
2023-02-26T11:50:05.391Z,102462.13
2023-02-26T11:52:40.152Z,102467.66
2023-02-26T11:55:21.554Z,102464.53
2023-02-26T11:57:56.060Z,102470.22
2023-02-26T12:00:31.026Z,102464.25
2023-02-26T12:03:04.522Z,102462.41
2023-02-26T12:05:31.983Z,102460.31
2023-02-26T12:07:59.806Z,102456.63
2023-02-26T12:10:40.116Z,102450.13
2023-02-26T12:13:20.656Z,102455.00
2023-02-26T12:15:57.085Z,102451.22
2023-02-26T12:18:43.443Z,102453.56
2023-02-26T12:21:39.810Z,102455.34
2023-02-26T12:24:30.310Z,102451.28
2023-02-26T12:27:04.579Z,102458.75
2023-02-26T12:29:51.473Z,102453.91
2023-02-26T12:32:47.722Z,102461.25
2023-02-26T12:35:42.802Z,102458.53
2023-02-26T12:38:21.523Z,102457.81
2023-02-26T12:41:14.840Z,102469.81
2023-02-26T12:43:48.887Z,102469.66
2023-02-26T12:46:34.004Z,102466.22
2023-02-26T12:49:23.383Z,102467.56
2023-02-26T12:52:16.077Z,102471.44
2023-02-26T12:55:09.376Z,102455.16
2023-02-26T12:58:24.427Z,102462.47
2023-02-26T13:01:10.036Z,102466.09
2023-02-26T13:04:43.952Z,102465.38
2023-02-26T13:07:50.981Z,102464.88
2023-02-26T13:10:29.712Z,102464.91
2023-02-26T13:13:16.446Z,102463.47
2023-02-26T13:16:15.074Z,102462.56
2023-02-26T13:18:56.766Z,102458.66
2023-02-26T13:21:30.912Z,102464.22
2023-02-26T13:24:06.900Z,102467.91
2023-02-26T13:26:36.524Z,102466.44
2023-02-26T13:29:09.530Z,102471.53
2023-02-26T13:31:43.336Z,102463.47
2023-02-26T13:34:18.985Z,102461.97
2023-02-26T13:36:47.866Z,102465.38
2023-02-26T13:39:36.631Z,102473.91
2023-02-26T13:42:21.062Z,102469.94
2023-02-26T13:45:07.752Z,102472.59
2023-02-26T13:47:55.248Z,102470.25
2023-02-26T13:50:35.538Z,102470.56
2023-02-26T13:53:29.691Z,102459.44
2023-02-26T13:56:13.179Z,102457.97
2023-02-26T13:58:44.427Z,102460.47
2023-02-26T14:01:17.568Z,102459.63
2023-02-26T14:03:52.454Z,102457.00
2023-02-26T14:06:37.694Z,102457.66
2023-02-26T14:09:26.549Z,102466.59
2023-02-26T14:12:22.625Z,102457.88
2023-02-26T14:15:39.298Z,102465.44
2023-02-26T14:18:20.247Z,102461.47
2023-02-26T14:20:47.231Z,102468.34
2023-02-26T14:23:36.494Z,102466.81
2023-02-26T14:26:18.677Z,102465.28
2023-02-26T14:28:58.552Z,102468.31
2023-02-26T14:31:27.359Z,102473.28
2023-02-26T14:34:15.204Z,102468.13
2023-02-26T14:36:49.244Z,102460.59
2023-02-26T14:39:29.399Z,102457.91
2023-02-26T14:42:03.877Z,102458.97
2023-02-26T14:44:40.062Z,102455.63
2023-02-26T14:47:08.392Z,102456.78
2023-02-26T14:49:40.071Z,102457.72
2023-02-26T14:52:37.039Z,102456.97
2023-02-26T14:55:27.352Z,102453.34
2023-02-26T14:58:15.569Z,102461.13
2023-02-26T15:00:55.752Z,102463.22
2023-02-26T15:04:03.712Z,102465.66
2023-02-26T15:06:51.799Z,102468.00
2023-02-26T15:09:26.462Z,102466.22
2023-02-26T15:12:26.557Z,102476.53
2023-02-26T15:15:15.542Z,102475.69
2023-02-26T15:18:18.128Z,102469.47
2023-02-26T15:21:00.320Z,102474.53
2023-02-26T15:23:42.046Z,102474.00
2023-02-26T15:26:19.377Z,102469.25
2023-02-26T15:28:47.806Z,102467.47
2023-02-26T15:31:16.313Z,102481.91
2023-02-26T15:33:47.854Z,102479.69
2023-02-26T15:36:21.875Z,102476.31
2023-02-26T15:38:54.935Z,102479.25
2023-02-26T15:41:25.039Z,102478.94
2023-02-26T15:43:57.122Z,102476.59
2023-02-26T15:46:31.597Z,102487.28
2023-02-26T15:49:07.379Z,102498.13
2023-02-26T15:51:35.222Z,102492.88
2023-02-26T15:54:03.733Z,102492.75
2023-02-26T15:56:36.737Z,102485.38
2023-02-26T15:59:09.503Z,102485.38
2023-02-26T16:01:36.909Z,102495.66
2023-02-26T16:04:13.268Z,102500.94
2023-02-26T16:06:45.831Z,102501.63
2023-02-26T16:09:25.399Z,102501.75
2023-02-26T16:11:58.052Z,102506.19
2023-02-26T16:14:29.880Z,102508.84
2023-02-26T16:16:58.086Z,102506.78
2023-02-26T16:19:36.083Z,102509.81
2023-02-26T16:22:16.374Z,102512.00
2023-02-26T16:24:44.665Z,102519.06
2023-02-26T16:27:14.166Z,102505.06
2023-02-26T16:29:51.749Z,102517.53
2023-02-26T16:32:19.975Z,102517.53
2023-02-26T16:34:53.433Z,102522.13
2023-02-26T16:37:34.386Z,102521.44
2023-02-26T16:40:19.872Z,102518.22
2023-02-26T16:42:59.613Z,102524.50
2023-02-26T16:45:49.410Z,102530.03
2023-02-26T16:48:24.134Z,102534.59
2023-02-26T16:50:58.475Z,102536.41
2023-02-26T16:53:35.158Z,102543.34
2023-02-26T16:56:04.280Z,102541.41
2023-02-26T16:58:32.615Z,102539.72
2023-02-26T17:01:09.066Z,102541.41
2023-02-26T17:03:38.431Z,102550.97
2023-02-26T17:06:11.644Z,102551.66
2023-02-26T17:08:49.019Z,102557.09
2023-02-26T17:11:25.444Z,102556.94
2023-02-26T17:14:12.735Z,102555.28
2023-02-26T17:16:40.231Z,102561.41
2023-02-26T17:19:07.230Z,102566.09
2023-02-26T17:21:43.313Z,102569.41
2023-02-26T17:24:18.285Z,102574.13
2023-02-26T17:26:47.661Z,102570.81
2023-02-26T17:29:22.993Z,102578.81
2023-02-26T17:31:50.845Z,102582.88
2023-02-26T17:34:20.951Z,102586.31
2023-02-26T17:36:49.759Z,102587.06
2023-02-26T17:39:16.618Z,102586.06
2023-02-26T17:41:45.152Z,102593.03
2023-02-26T17:44:12.361Z,102591.34
2023-02-26T17:46:39.508Z,102599.25
2023-02-26T17:49:06.976Z,102591.34
2023-02-26T17:51:33.855Z,102599.25
2023-02-26T17:54:02.297Z,102601.88
2023-02-26T17:56:34.321Z,102599.50
2023-02-26T17:59:02.239Z,102611.03
2023-02-26T18:01:30.013Z,102612.97
2023-02-26T18:03:57.852Z,102615.88
2023-02-26T18:06:25.752Z,102622.38
2023-02-26T18:08:54.188Z,102614.03
2023-02-26T18:11:25.839Z,102626.78
2023-02-26T18:13:55.159Z,102629.91
2023-02-26T18:16:29.227Z,102619.22
2023-02-26T18:18:56.112Z,102625.00
2023-02-26T18:21:23.095Z,102621.22
2023-02-26T18:23:50.267Z,102616.59
2023-02-26T18:26:22.793Z,102625.03
2023-02-26T18:28:51.328Z,102629.28
2023-02-26T18:31:20.015Z,102633.38
2023-02-26T18:33:47.510Z,102630.53
2023-02-26T18:36:23.906Z,102633.69
2023-02-26T18:38:51.086Z,102636.81
2023-02-26T18:41:18.931Z,102630.25
2023-02-26T18:43:47.148Z,102631.47
2023-02-26T18:46:14.255Z,102632.81
2023-02-26T18:48:41.213Z,102645.78
2023-02-26T18:51:08.361Z,102642.88
2023-02-26T18:53:35.365Z,102643.50
2023-02-26T18:56:02.647Z,102638.88
2023-02-26T18:58:29.902Z,102648.22
2023-02-26T19:00:59.232Z,102645.13
2023-02-26T19:03:26.611Z,102643.44
2023-02-26T19:05:58.200Z,102645.59
2023-02-26T19:08:25.624Z,102642.25
2023-02-26T19:10:52.807Z,102640.84
2023-02-26T19:13:19.728Z,102634.13
2023-02-26T19:15:46.824Z,102635.34
2023-02-26T19:18:15.114Z,102640.84
2023-02-26T19:20:42.392Z,102650.63
2023-02-26T19:23:09.497Z,102651.47
2023-02-26T19:25:37.716Z,102655.66
2023-02-26T19:28:05.491Z,102654.81
2023-02-26T19:30:34.470Z,102656.59
2023-02-26T19:33:02.224Z,102650.41
2023-02-26T19:35:30.720Z,102655.91
2023-02-26T19:37:57.927Z,102657.81
2023-02-26T19:40:25.225Z,102649.44
2023-02-26T19:42:52.161Z,102651.84
2023-02-26T19:45:19.381Z,102658.56
2023-02-26T19:47:46.709Z,102657.22
2023-02-26T19:50:14.337Z,102656.59
2023-02-26T19:52:43.049Z,102656.59
2023-02-26T19:55:11.167Z,102658.28
2023-02-26T19:57:38.379Z,102662.72
2023-02-26T20:00:07.132Z,102670.50
2023-02-26T20:02:34.472Z,102666.88
2023-02-26T20:05:01.467Z,102672.84
2023-02-26T20:07:28.518Z,102673.84
2023-02-26T20:09:56.977Z,102680.38
2023-02-26T20:12:23.863Z,102689.81
2023-02-26T20:14:51.185Z,102693.13
2023-02-26T20:17:18.436Z,102695.50
2023-02-26T20:19:46.342Z,102702.06
2023-02-26T20:22:13.291Z,102697.03
2023-02-26T20:24:41.156Z,102708.38
2023-02-26T20:27:09.692Z,102701.22
2023-02-26T20:29:36.859Z,102711.50
2023-02-26T20:32:04.997Z,102712.69
2023-02-26T20:34:32.188Z,102721.06
2023-02-26T20:36:59.391Z,102718.09
2023-02-26T20:39:26.436Z,102715.25
2023-02-26T20:41:53.631Z,102721.22
2023-02-26T20:44:21.862Z,102727.53
2023-02-26T20:46:49.277Z,102728.00
2023-02-26T20:49:17.244Z,102722.63
2023-02-26T20:51:44.590Z,102735.47
2023-02-26T20:54:17.568Z,102728.66
2023-02-26T20:56:45.172Z,102731.28
2023-02-26T20:59:12.318Z,102727.47
2023-02-26T21:01:40.949Z,102722.84
2023-02-26T21:04:09.468Z,102737.75
2023-02-26T21:06:37.588Z,102737.25
2023-02-26T21:09:06.681Z,102738.78
2023-02-26T21:11:36.630Z,102735.88
2023-02-26T21:14:07.410Z,102741.94
2023-02-26T21:16:35.726Z,102739.88
2023-02-26T21:19:04.452Z,102739.56
2023-02-26T21:21:31.799Z,102738.47
2023-02-26T21:23:58.856Z,102745.84
2023-02-26T21:26:27.526Z,102741.00
2023-02-26T21:28:54.629Z,102747.41
2023-02-26T21:31:21.940Z,102743.94
2023-02-26T21:33:49.245Z,102747.22
2023-02-26T21:36:17.545Z,102741.13
2023-02-26T21:38:44.698Z,102744.78
2023-02-26T21:41:11.676Z,102752.75
2023-02-26T21:43:39.247Z,102751.19
2023-02-26T21:46:06.564Z,102756.66
2023-02-26T21:48:33.542Z,102754.25
2023-02-26T21:51:00.753Z,102761.38
2023-02-26T21:53:29.103Z,102759.81
2023-02-26T21:55:56.739Z,102761.09
2023-02-26T21:58:24.085Z,102768.66
2023-02-26T22:00:51.676Z,102767.28
2023-02-26T22:03:18.696Z,102765.22
2023-02-26T22:05:45.578Z,102761.44
2023-02-26T22:08:12.573Z,102763.53
2023-02-26T22:10:40.852Z,102766.41
2023-02-26T22:13:07.800Z,102763.13
2023-02-26T22:15:34.992Z,102765.03
2023-02-26T22:18:02.018Z,102764.38
2023-02-26T22:20:30.160Z,102769.00
2023-02-26T22:22:57.408Z,102767.44
2023-02-26T22:25:24.536Z,102774.66
2023-02-26T22:27:52.792Z,102767.97
2023-02-26T22:30:19.720Z,102765.53
2023-02-26T22:32:47.242Z,102764.72
2023-02-26T22:35:14.356Z,102770.78
2023-02-26T22:37:42.193Z,102769.41
2023-02-26T22:40:12.614Z,102780.88
2023-02-26T22:42:41.050Z,102787.44
2023-02-26T22:45:17.106Z,102789.13
2023-02-26T22:47:44.535Z,102792.69
2023-02-26T22:50:13.083Z,102791.31
2023-02-26T22:52:40.744Z,102786.59
2023-02-26T22:55:10.273Z,102800.44
2023-02-26T22:57:37.368Z,102793.00
2023-02-26T23:00:08.883Z,102791.53
2023-02-26T23:02:38.833Z,102787.66
2023-02-26T23:05:06.976Z,102789.44
2023-02-26T23:07:34.009Z,102788.19
2023-02-26T23:10:01.384Z,102790.47
2023-02-26T23:12:28.398Z,102792.06
2023-02-26T23:14:55.532Z,102791.03
2023-02-26T23:17:22.476Z,102788.63
2023-02-26T23:19:50.722Z,102800.25
2023-02-26T23:22:17.755Z,102788.50
2023-02-26T23:24:46.249Z,102793.97
2023-02-26T23:27:13.368Z,102785.56
2023-02-26T23:29:46.479Z,102788.56
2023-02-26T23:32:15.077Z,102782.19
2023-02-26T23:34:42.186Z,102788.88
2023-02-26T23:37:10.587Z,102789.28
2023-02-26T23:39:37.500Z,102787.09
2023-02-26T23:42:04.704Z,102797.00
2023-02-26T23:44:31.978Z,102791.25
2023-02-26T23:46:59.455Z,102795.94
2023-02-26T23:49:26.387Z,102793.41
2023-02-26T23:51:53.322Z,102799.59
2023-02-26T23:54:21.574Z,102797.81
2023-02-26T23:56:48.472Z,102800.31
2023-02-26T23:59:17.742Z,102798.53
